| time (UTC) | temp F | wind direction | speed MPH | gust MPH | rain 1hr in | rain 24hr in | rain mn in | humidity % | barometer mb |
| 20260505064703 | 72 | 144 | 2.0 | 9.0 | 0.00 | 0.00 | 0.00 | 78 | 1005.4 |
| 20260505064524 | 72 | 184 | 1.0 | 9.0 | 0.00 | 0.00 | 0.00 | 78 | 1005.7 |
| 20260505063704 | 72 | 250 | 7.0 | 8.0 | 0.00 | 0.00 | 0.00 | 78 | 1005.8 |
| 20260505063603 | 72 | 175 | 1.0 | 11.0 | 0.00 | 0.00 | 0.00 | 78 | 1005.9 |
| 20260505063203 | 72 | 151 | 7.0 | 10.0 | 0.00 | 0.00 | 0.00 | 78 | 1005.7 |
| 20260505062704 | 72 | 192 | 5.0 | 10.0 | 0.00 | 0.00 | 0.00 | 77 | 1005.8 |
| 20260505062203 | 72 | 262 | 2.0 | 10.0 | 0.00 | 0.00 | 0.00 | 77 | 1005.4 |
| 20260505061803 | 72 | 175 | 1.0 | 12.0 | 0.00 | 0.00 | 0.00 | 77 | 1005.8 |
| 20260505061204 | 72 | 208 | 3.0 | 12.0 | 0.00 | 0.00 | 0.00 | 77 | 1005.4 |
| 20260505060903 | 72 | 189 | 1.0 | 10.0 | 0.00 | 0.00 | 0.00 | 77 | 1005.7 |
| 20260505060703 | 72 | 181 | 3.0 | 10.0 | 0.00 | 0.00 | 0.00 | 76 | 1005.8 |
| 20260505060204 | 72 | 223 | 2.0 | 14.0 | 0.00 | 0.00 | 0.00 | 76 | 1005.8 |
| 20260505060003 | 72 | 206 | 1.0 | 14.0 | 0.00 | 0.00 | 0.00 | 76 | 1005.8 |
| 20260505055703 | 72 | 228 | 5.0 | 14.0 | 0.00 | 0.00 | 0.00 | 76 | 1005.8 |
| 20260505055425 | 72 | 198 | 1.0 | 10.0 | 0.00 | 0.00 | 0.00 | 76 | 1005.9 |
| 20260505055204 | 72 | 241 | 2.0 | 8.0 | 0.00 | 0.00 | 0.00 | 76 | 1005.8 |
| 20260505054704 | 73 | 172 | 2.0 | 8.0 | 0.00 | 0.00 | 0.00 | 75 | 1005.8 |
| 20260505054504 | 72 | 173 | 0.0 | 10.0 | 0.00 | 0.00 | 0.00 | 75 | 1006.1 |
| 20260505054204 | 73 | 180 | 2.0 | 10.0 | 0.00 | 0.00 | 0.00 | 75 | 1005.8 |
| 20260505053703 | 72 | 201 | 0.0 | 7.0 | 0.00 | 0.00 | 0.00 | 75 | 1006.1 |
| 20260505053625 | 72 | 180 | 0.0 | 8.0 | 0.00 | 0.00 | 0.00 | 75 | 1006.2 |
| 20260505053204 | 73 | 143 | 1.0 | 8.0 | 0.00 | 0.00 | 0.00 | 75 | 1006.1 |
| 20260505052703 | 72 | 178 | 1.0 | 11.0 | 0.00 | 0.00 | 0.00 | 74 | 1006.3 |
| 20260505052204 | 73 | 234 | 3.0 | 6.0 | 0.00 | 0.00 | 0.00 | 74 | 1006.1 |
| 20260505051804 | 72 | 196 | 1.0 | 10.0 | 0.00 | 0.00 | 0.00 | 74 | 1006.3 |
| 20260505051704 | 73 | 176 | 3.0 | 10.0 | 0.00 | 0.00 | 0.00 | 74 | 1006.1 |
| 20260505051203 | 73 | 178 | 6.0 | 10.0 | 0.00 | 0.00 | 0.00 | 74 | 1006.1 |
| 20260505050903 | 72 | 230 | 1.0 | 9.0 | 0.00 | 0.00 | 0.00 | 74 | 1006.3 |
| 20260505050704 | 73 | 192 | 5.0 | 9.0 | 0.00 | 0.00 | 0.00 | 74 | 1006.1 |
| 20260505050204 | 73 | 257 | 3.0 | 7.0 | 0.00 | 0.00 | 0.00 | 74 | 1006.0 |
| 20260505041704 | 73 | 199 | 2.0 | 9.0 | 0.00 | 0.00 | 0.00 | 71 | 1006.1 |
| 20260505040704 | 73 | 187 | 2.0 | 9.0 | 0.00 | 0.00 | 0.00 | 71 | 1006.3 |
| 20260505035704 | 74 | 138 | 2.0 | 12.0 | 0.00 | 0.00 | 0.00 | 71 | 1006.4 |
| 20260505035204 | 74 | 170 | 2.0 | 9.0 | 0.00 | 0.00 | 0.00 | 71 | 1006.2 |
| 20260505034704 | 74 | 199 | 2.0 | 9.0 | 0.00 | 0.00 | 0.00 | 71 | 1006.4 |
| 20260505034204 | 74 | 236 | 1.0 | 10.0 | 0.00 | 0.00 | 0.00 | 71 | 1006.4 |
| 20260505033704 | 73 | 220 | 3.0 | 10.0 | 0.00 | 0.00 | 0.00 | 71 | 1006.4 |
| 20260505032204 | 74 | 187 | 2.0 | 10.0 | 0.00 | 0.00 | 0.00 | 70 | 1006.5 |
| 20260505031704 | 74 | 224 | 3.0 | 10.0 | 0.00 | 0.00 | 0.00 | 70 | 1006.4 |
| 20260505031205 | 74 | 205 | 1.0 | 6.0 | 0.00 | 0.00 | 0.00 | 70 | 1006.4 |
| 20260505030704 | 74 | 169 | 3.0 | 7.0 | 0.00 | 0.00 | 0.00 | 70 | 1006.4 |
| 20260505030204 | 74 | 91 | 2.0 | 8.0 | 0.00 | 0.00 | 0.00 | 69 | 1006.4 |
| 20260505025704 | 74 | 208 | 2.0 | 5.0 | 0.00 | 0.00 | 0.00 | 69 | 1006.4 |
| 20260505024704 | 74 | 151 | 7.0 | 9.0 | 0.00 | 0.00 | 0.00 | 69 | 1006.4 |
| 20260505024503 | 74 | 146 | 1.0 | 9.0 | 0.00 | 0.00 | 0.00 | 69 | 1006.6 |
| 20260505024204 | 74 | 43 | 0.0 | 5.0 | 0.00 | 0.00 | 0.00 | 69 | 1006.5 |
| 20260505023704 | 74 | 298 | 1.0 | 7.0 | 0.00 | 0.00 | 0.00 | 69 | 1006.4 |
| 20260505023604 | 74 | 254 | 0.0 | 7.0 | 0.00 | 0.00 | 0.00 | 69 | 1006.7 |
| 20260505023203 | 74 | 246 | 0.0 | 7.0 | 0.00 | 0.00 | 0.00 | 68 | 1006.4 |
| 20260505022704 | 74 | 217 | 1.0 | 7.0 | 0.00 | 0.00 | 0.00 | 68 | 1006.5 |
| 20260505021803 | 74 | 210 | 1.0 | 8.0 | 0.00 | 0.00 | 0.00 | 68 | 1006.6 |
| 20260505021203 | 75 | 212 | 2.0 | 8.0 | 0.00 | 0.00 | 0.00 | 67 | 1006.2 |
| 20260505020904 | 75 | 193 | 1.0 | 8.0 | 0.00 | 0.00 | 0.00 | 67 | 1006.5 |
| 20260505020704 | 75 | 205 | 2.0 | 7.0 | 0.00 | 0.00 | 0.00 | 67 | 1006.1 |
| 20260505020205 | 75 | 161 | 3.0 | 6.0 | 0.00 | 0.00 | 0.00 | 67 | 1006.1 |
| 20260505020004 | 75 | 190 | 1.0 | 8.0 | 0.00 | 0.00 | 0.00 | 67 | 1006.5 |
| 20260505015704 | 75 | 225 | 6.0 | 8.0 | 0.00 | 0.00 | 0.00 | 66 | 1006.3 |
| 20260505015425 | 75 | 173 | 1.0 | 8.0 | 0.00 | 0.00 | 0.00 | 66 | 1006.3 |
| 20260505015204 | 75 | 153 | 4.0 | 8.0 | 0.00 | 0.00 | 0.00 | 66 | 1006.1 |
| 20260505014704 | 75 | 148 | 5.0 | 7.0 | 0.00 | 0.00 | 0.00 | 66 | 1006.1 |
| 20260505014524 | 75 | 146 | 1.0 | 7.0 | 0.00 | 0.00 | 0.00 | 66 | 1006.5 |
| 20260505014204 | 75 | 208 | 2.0 | 7.0 | 0.00 | 0.00 | 0.00 | 66 | 1006.1 |
| 20260505013703 | 75 | 122 | 3.0 | 6.0 | 0.00 | 0.00 | 0.00 | 66 | 1006.1 |
| 20260505013603 | 75 | 174 | 1.0 | 6.0 | 0.00 | 0.00 | 0.00 | 66 | 1006.5 |
| 20260505013205 | 75 | 210 | 1.0 | 6.0 | 0.00 | 0.00 | 0.00 | 65 | 1006.1 |
| 20260505012725 | 76 | 190 | 1.0 | 6.0 | 0.00 | 0.00 | 0.00 | 65 | 1006.4 |
| 20260505012704 | 76 | 230 | 2.0 | 7.0 | 0.00 | 0.00 | 0.00 | 65 | 1006.1 |
| 20260505012204 | 76 | 152 | 3.0 | 8.0 | 0.00 | 0.00 | 0.00 | 65 | 1006.1 |
| 20260505011804 | 76 | 234 | 1.0 | 8.0 | 0.00 | 0.00 | 0.00 | 65 | 1006.4 |
| 20260505011704 | 76 | 245 | 2.0 | 8.0 | 0.00 | 0.00 | 0.00 | 65 | 1006.1 |
| 20260505011204 | 76 | 248 | 2.0 | 10.0 | 0.00 | 0.00 | 0.00 | 64 | 1006.1 |
| 20260505010903 | 76 | 228 | 1.0 | 10.0 | 0.00 | 0.00 | 0.00 | 64 | 1006.3 |
| 20260505010704 | 76 | 188 | 5.0 | 10.0 | 0.00 | 0.00 | 0.00 | 64 | 1006.1 |
| 20260505010204 | 76 | 263 | 2.0 | 9.0 | 0.00 | 0.00 | 0.00 | 63 | 1006.0 |
| 20260505010004 | 76 | 209 | 1.0 | 10.0 | 0.00 | 0.00 | 0.00 | 63 | 1006.4 |
| 20260505005704 | 76 | 232 | 5.0 | 9.0 | 0.00 | 0.00 | 0.00 | 63 | 1005.8 |
| 20260505005403 | 76 | 196 | 2.0 | 10.0 | 0.00 | 0.00 | 0.00 | 63 | 1006.5 |
| 20260505005204 | 77 | 185 | 7.0 | 9.0 | 0.00 | 0.00 | 0.00 | 62 | 1006.1 |
| 20260505004704 | 77 | 210 | 10.0 | 10.0 | 0.00 | 0.00 | 0.00 | 62 | 1006.1 |
| 20260505004524 | 77 | 203 | 1.0 | 10.0 | 0.00 | 0.00 | 0.00 | 62 | 1006.4 |
| 20260505004206 | 77 | 155 | 6.0 | 10.0 | 0.00 | 0.00 | 0.00 | 62 | 1005.8 |
| 20260505003704 | 77 | 246 | 0.0 | 9.0 | 0.00 | 0.00 | 0.00 | 62 | 1006.1 |
| 20260505003624 | 77 | 185 | 1.0 | 10.0 | 0.00 | 0.00 | 0.00 | 62 | 1006.5 |
| 20260505003204 | 77 | 184 | 3.0 | 10.0 | 0.00 | 0.00 | 0.00 | 61 | 1006.1 |
| 20260505002704 | 78 | 164 | 1.0 | 11.0 | 0.00 | 0.00 | 0.00 | 61 | 1006.2 |
| 20260505001804 | 78 | 179 | 1.0 | 9.0 | 0.00 | 0.00 | 0.00 | 60 | 1006.6 |
| 20260505001704 | 78 | 175 | 3.0 | 9.0 | 0.00 | 0.00 | 0.00 | 60 | 1006.2 |
| 20260505001204 | 78 | 186 | 3.0 | 12.0 | 0.00 | 0.00 | 0.00 | 59 | 1006.4 |
| 20260505000903 | 78 | 227 | 1.0 | 11.0 | 0.00 | 0.00 | 0.00 | 59 | 1006.5 |
| 20260505000704 | 79 | 232 | 2.0 | 12.0 | 0.00 | 0.00 | 0.00 | 59 | 1006.1 |
| 20260505000204 | 79 | 244 | 2.0 | 10.0 | 0.00 | 0.00 | 0.00 | 58 | 1006.1 |
| 20260505000004 | 79 | 220 | 1.0 | 10.0 | 0.00 | 0.00 | 0.00 | 58 | 1006.7 |
| 20260504235704 | 79 | 211 | 5.0 | 10.0 | 0.00 | 0.00 | 0.00 | 57 | 1006.1 |
| 20260504235204 | 79 | 231 | 5.0 | 9.0 | 0.00 | 0.00 | 0.00 | 58 | 1006.1 |
| 20260504234705 | 79 | 256 | 3.0 | 8.0 | 0.00 | 0.00 | 0.00 | 59 | 1006.8 |
| 20260504234204 | 79 | 257 | 2.0 | 10.0 | 0.00 | 0.00 | 0.00 | 59 | 1006.1 |
| 20260504233704 | 79 | 210 | 3.0 | 12.0 | 0.00 | 0.00 | 0.00 | 58 | 1006.1 |
| 20260504233203 | 79 | 176 | 3.0 | 10.0 | 0.00 | 0.00 | 0.00 | 58 | 1006.1 |
| 20260504232204 | 79 | 174 | 5.0 | 10.0 | 0.00 | 0.00 | 0.00 | 57 | 1006.1 |
| 20260504231704 | 80 | 156 | 9.0 | 15.0 | 0.00 | 0.00 | 0.00 | 57 | 1006.4 |
| 20260504231204 | 80 | 147 | 2.0 | 13.0 | 0.00 | 0.00 | 0.00 | 56 | 1006.4 |
| 20260504230704 | 81 | 233 | 5.0 | 10.0 | 0.00 | 0.00 | 0.00 | 55 | 1006.4 |
| 20260504230203 | 81 | 162 | 5.0 | 10.0 | 0.00 | 0.00 | 0.00 | 54 | 1006.4 |
| 20260504225704 | 81 | 245 | 3.0 | 10.0 | 0.00 | 0.00 | 0.00 | 56 | 1006.8 |
| 20260504225204 | 81 | 172 | 3.0 | 13.0 | 0.00 | 0.00 | 0.00 | 56 | 1006.8 |
| 20260504224704 | 81 | 226 | 4.0 | 13.0 | 0.00 | 0.00 | 0.00 | 55 | 1006.8 |
| 20260504224204 | 81 | 256 | 1.0 | 8.0 | 0.00 | 0.00 | 0.00 | 55 | 1006.8 |
| 20260504223704 | 81 | 246 | 3.0 | 10.0 | 0.00 | 0.00 | 0.00 | 54 | 1006.8 |
| 20260504223204 | 81 | 178 | 5.0 | 12.0 | 0.00 | 0.00 | 0.00 | 54 | 1006.4 |
| 20260504222704 | 82 | 195 | 5.0 | 7.0 | 0.00 | 0.00 | 0.00 | 54 | 1006.4 |
| 20260504222204 | 81 | 182 | 5.0 | 12.0 | 0.00 | 0.00 | 0.00 | 54 | 1006.6 |
| 20260504221704 | 81 | 201 | 4.0 | 10.0 | 0.00 | 0.00 | 0.00 | 55 | 1006.8 |
| 20260504221204 | 81 | 244 | 3.0 | 9.0 | 0.00 | 0.00 | 0.00 | 55 | 1006.8 |
| 20260504220704 | 81 | 172 | 5.0 | 9.0 | 0.00 | 0.00 | 0.00 | 54 | 1006.8 |
| 20260504220204 | 82 | 160 | 6.0 | 9.0 | 0.00 | 0.00 | 0.00 | 53 | 1006.8 |
| 20260504215205 | 82 | 181 | 6.0 | 7.0 | 0.00 | 0.00 | 0.00 | 52 | 1006.8 |
| 20260504214704 | 82 | 165 | 3.0 | 9.0 | 0.00 | 0.00 | 0.00 | 54 | 1007.1 |
| 20260504214204 | 82 | 245 | 6.0 | 13.0 | 0.00 | 0.00 | 0.00 | 53 | 1007.5 |
| 20260504213603 | 81 | 165 | 1.0 | 13.0 | 0.00 | 0.00 | 0.00 | 53 | 1007.9 |
| 20260504213204 | 82 | 153 | 6.0 | 9.0 | 0.00 | 0.00 | 0.00 | 53 | 1007.5 |
| 20260504212704 | 82 | 169 | 7.0 | 10.0 | 0.00 | 0.00 | 0.00 | 53 | 1007.4 |
| 20260504212204 | 82 | 233 | 2.0 | 10.0 | 0.00 | 0.00 | 0.00 | 53 | 1007.5 |
| 20260504211804 | 81 | 210 | 1.0 | 9.0 | 0.00 | 0.00 | 0.00 | 54 | 1008.1 |
| 20260504211704 | 82 | 220 | 5.0 | 9.0 | 0.00 | 0.00 | 0.00 | 53 | 1007.8 |
| 20260504211203 | 82 | 177 | 2.0 | 8.0 | 0.00 | 0.00 | 0.00 | 53 | 1007.8 |
| 20260504210903 | 82 | 204 | 1.0 | 7.0 | 0.00 | 0.00 | 0.00 | 53 | 1008.4 |
| 20260504210704 | 82 | 212 | 4.0 | 7.0 | 0.00 | 0.00 | 0.00 | 52 | 1007.8 |
| 20260504210204 | 82 | 159 | 6.0 | 13.0 | 0.00 | 0.00 | 0.00 | 53 | 1007.8 |
| 20260504210004 | 82 | 212 | 1.0 | 13.0 | 0.00 | 0.00 | 0.00 | 53 | 1008.5 |
| 20260504205704 | 82 | 230 | 5.0 | 13.0 | 0.00 | 0.00 | 0.00 | 52 | 1008.0 |
| 20260504205403 | 82 | 215 | 1.0 | 13.0 | 0.00 | 0.00 | 0.00 | 52 | 1008.6 |
| 20260504204704 | 82 | 214 | 3.0 | 8.0 | 0.00 | 0.00 | 0.00 | 53 | 1008.1 |
| 20260504204503 | 82 | 193 | 1.0 | 12.0 | 0.00 | 0.00 | 0.00 | 53 | 1008.8 |
| 20260504204204 | 82 | 172 | 5.0 | 13.0 | 0.00 | 0.00 | 0.00 | 51 | 1008.1 |
| 20260504203624 | 82 | 226 | 1.0 | 15.0 | 0.00 | 0.00 | 0.00 | 52 | 1009.0 |
| 20260504203204 | 82 | 262 | 7.0 | 15.0 | 0.00 | 0.00 | 0.00 | 50 | 1008.5 |
| 20260504202704 | 82 | 217 | 3.0 | 13.0 | 0.00 | 0.00 | 0.00 | 52 | 1008.5 |
| 20260504202205 | 82 | 172 | 5.0 | 13.0 | 0.00 | 0.00 | 0.00 | 50 | 1008.5 |
| 20260504201803 | 82 | 207 | 1.0 | 12.0 | 0.00 | 0.00 | 0.00 | 49 | 1009.4 |
| 20260504201703 | 82 | 220 | 5.0 | 8.0 | 0.00 | 0.00 | 0.00 | 50 | 1008.8 |
| 20260504201204 | 82 | 244 | 6.0 | 12.0 | 0.00 | 0.00 | 0.00 | 50 | 1008.8 |
| 20260504200903 | 82 | 197 | 1.0 | 16.0 | 0.00 | 0.00 | 0.00 | 49 | 1009.6 |
| 20260504200704 | 82 | 170 | 5.0 | 16.0 | 0.00 | 0.00 | 0.00 | 50 | 1009.1 |
| 20260504200004 | 81 | 202 | 1.0 | 16.0 | 0.00 | 0.00 | 0.00 | 49 | 1009.7 |
| 20260504195704 | 81 | 206 | 5.0 | 13.0 | 0.00 | 0.00 | 0.00 | 49 | 1009.1 |
| 20260504195404 | 81 | 209 | 1.0 | 9.0 | 0.00 | 0.00 | 0.00 | 50 | 1009.6 |
| 20260504195204 | 81 | 168 | 5.0 | 8.0 | 0.00 | 0.00 | 0.00 | 51 | 1009.1 |
| 20260504194524 | 81 | 225 | 1.0 | 11.0 | 0.00 | 0.00 | 0.00 | 49 | 1010.0 |
| 20260504194204 | 81 | 167 | 5.0 | 10.0 | 0.00 | 0.00 | 0.00 | 49 | 1009.5 |
| 20260504193704 | 81 | 286 | 2.0 | 10.0 | 0.00 | 0.00 | 0.00 | 50 | 1009.1 |
| 20260504193604 | 81 | 204 | 1.0 | 13.0 | 0.00 | 0.00 | 0.00 | 50 | 1009.9 |
| 20260504193204 | 80 | 203 | 4.0 | 13.0 | 0.00 | 0.00 | 0.00 | 52 | 1009.6 |
| 20260504192704 | 80 | 154 | 3.0 | 13.0 | 0.00 | 0.00 | 0.00 | 52 | 1009.5 |
| 20260504192204 | 80 | 174 | 2.0 | 12.0 | 0.00 | 0.00 | 0.00 | 51 | 1009.8 |
| 20260504191824 | 81 | 245 | 1.0 | 10.0 | 0.00 | 0.00 | 0.00 | 49 | 1010.5 |
| 20260504191703 | 81 | 245 | 2.0 | 9.0 | 0.00 | 0.00 | 0.00 | 50 | 1009.8 |
| 20260504191205 | 81 | 251 | 3.0 | 10.0 | 0.00 | 0.00 | 0.00 | 51 | 1009.8 |
| 20260504190903 | 81 | 190 | 1.0 | 12.0 | 0.00 | 0.00 | 0.00 | 49 | 1010.6 |
| 20260504190705 | 81 | 169 | 5.0 | 13.0 | 0.00 | 0.00 | 0.00 | 49 | 1009.8 |
| 20260504190204 | 80 | 173 | 9.0 | 14.0 | 0.00 | 0.00 | 0.00 | 49 | 1010.0 |
| 20260504190004 | 81 | 216 | 2.0 | 13.0 | 0.00 | 0.00 | 0.00 | 47 | 1010.6 |
| 20260504185703 | 81 | 205 | 7.0 | 14.0 | 0.00 | 0.00 | 0.00 | 48 | 1010.2 |
| 20260504185403 | 81 | 226 | 1.0 | 10.0 | 0.00 | 0.00 | 0.00 | 47 | 1010.8 |
| 20260504185204 | 81 | 248 | 2.0 | 8.0 | 0.00 | 0.00 | 0.00 | 49 | 1009.8 |
| 20260504184704 | 80 | 152 | 4.0 | 8.0 | 0.00 | 0.00 | 0.00 | 47 | 1010.0 |
| 20260504184503 | 80 | 251 | 1.0 | 10.0 | 0.00 | 0.00 | 0.00 | 47 | 1010.4 |
| 20260504184204 | 80 | 281 | 5.0 | 10.0 | 0.00 | 0.00 | 0.00 | 49 | 1010.2 |
| 20260504183703 | 79 | 254 | 3.0 | 9.0 | 0.00 | 0.00 | 0.00 | 50 | 1010.2 |
| 20260504183603 | 79 | 215 | 1.0 | 14.0 | 0.00 | 0.00 | 0.00 | 50 | 1010.7 |
| 20260504182724 | 80 | 209 | 1.0 | 14.0 | 0.00 | 0.00 | 0.00 | 46 | 1011.0 |
| 20260504182703 | 80 | 204 | 6.0 | 14.0 | 0.00 | 0.00 | 0.00 | 46 | 1010.5 |
| 20260504182204 | 79 | 206 | 3.0 | 6.0 | 0.00 | 0.00 | 0.00 | 49 | 1010.5 |
| 20260504181803 | 78 | 247 | 1.0 | 8.0 | 0.00 | 0.00 | 0.00 | 48 | 1011.2 |
| 20260504181704 | 78 | 216 | 5.0 | 8.0 | 0.00 | 0.00 | 0.00 | 48 | 1010.8 |
| 20260504180704 | 79 | 234 | 3.0 | 15.0 | 0.00 | 0.00 | 0.00 | 45 | 1010.8 |
| 20260504180204 | 79 | 197 | 4.0 | 15.0 | 0.00 | 0.00 | 0.00 | 48 | 1010.8 |
| 20260504175703 | 78 | 232 | 7.0 | 10.0 | 0.00 | 0.00 | 0.00 | 49 | 1010.8 |
| 20260504175204 | 78 | 200 | 1.0 | 10.0 | 0.00 | 0.00 | 0.00 | 52 | 1011.2 |
| 20260504174705 | 78 | 222 | 5.0 | 13.0 | 0.00 | 0.00 | 0.00 | 50 | 1011.2 |
| 20260504174204 | 77 | 190 | 3.0 | 13.0 | 0.00 | 0.00 | 0.00 | 49 | 1011.2 |
| 20260504173703 | 78 | 178 | 3.0 | 12.0 | 0.00 | 0.00 | 0.00 | 48 | 1011.4 |
| 20260504173204 | 77 | 138 | 4.0 | 10.0 | 0.00 | 0.00 | 0.00 | 49 | 1011.5 |
| 20260504172703 | 77 | 176 | 3.0 | 12.0 | 0.00 | 0.00 | 0.00 | 47 | 1011.9 |
| 20260504172204 | 76 | 161 | 2.0 | 12.0 | 0.00 | 0.00 | 0.00 | 48 | 1011.9 |
| 20260504171703 | 77 | 153 | 1.0 | 12.0 | 0.00 | 0.00 | 0.00 | 48 | 1011.9 |
| 20260504170703 | 77 | 201 | 5.0 | 12.0 | 0.00 | 0.00 | 0.00 | 48 | 1012.2 |
| 20260504170204 | 76 | 212 | 8.0 | 14.0 | 0.00 | 0.00 | 0.00 | 47 | 1012.2 |
| 20260504160204 | 74 | 255 | 0.0 | 15.0 | 0.00 | 0.00 | 0.00 | 52 | 1012.9 |
| 20260504150903 | 72 | 185 | 2.0 | 12.0 | 0.00 | 0.00 | 0.00 | 56 | 1013.5 |
| 20260504150704 | 71 | 166 | 11.0 | 13.0 | 0.00 | 0.00 | 0.00 | 56 | 1013.2 |
| 20260504150204 | 71 | 225 | 3.0 | 7.0 | 0.00 | 0.00 | 0.00 | 58 | 1013.2 |
| 20260504141204 | 68 | 237 | 7.0 | 15.0 | 0.00 | 0.00 | 0.00 | 64 | 1013.5 |
| 20260504140903 | 68 | 207 | 1.0 | 14.0 | 0.00 | 0.00 | 0.00 | 64 | 1013.8 |
| 20260504140704 | 68 | 177 | 2.0 | 9.0 | 0.00 | 0.00 | 0.00 | 64 | 1013.5 |
| 20260504140204 | 68 | 197 | 3.0 | 10.0 | 0.00 | 0.00 | 0.00 | 64 | 1013.5 |
| 20260504130704 | 65 | 121 | 2.0 | 8.0 | 0.00 | 0.00 | 0.00 | 70 | 1013.9 |
| 20260504130204 | 65 | 172 | 2.0 | 6.0 | 0.00 | 0.00 | 0.00 | 70 | 1013.9 |
| 20260504120204 | 62 | 217 | 2.0 | 8.0 | 0.00 | 0.00 | 0.00 | 69 | 1013.9 |
| 20260504110704 | 62 | 245 | 2.0 | 6.0 | 0.00 | 0.00 | 0.00 | 72 | 1013.5 |
| 20260504110204 | 62 | 210 | 1.0 | 5.0 | 0.00 | 0.00 | 0.00 | 72 | 1013.5 |
| 20260504081703 | 64 | 188 | 2.0 | 5.0 | 0.00 | 0.00 | 0.00 | 58 | 1014.2 |
| 20260504081204 | 65 | 187 | 1.0 | 5.0 | 0.00 | 0.00 | 0.00 | 58 | 1014.2 |
| 20260504080204 | 65 | 180 | 3.0 | 6.0 | 0.00 | 0.00 | 0.00 | 57 | 1014.2 |
| 20260504070204 | 65 | 210 | 2.0 | 6.0 | 0.00 | 0.00 | 0.00 | 57 | 1014.9 |